createdAt,value
2023-10-05T00:02:12.566Z,7.70
2023-10-05T00:04:44.995Z,7.70
2023-10-05T00:07:28.090Z,7.70
2023-10-05T00:09:57.952Z,7.60
2023-10-05T00:12:25.081Z,7.60
2023-10-05T00:15:05.095Z,7.60
2023-10-05T00:17:33.810Z,7.60
2023-10-05T00:20:00.623Z,7.60
2023-10-05T00:22:27.453Z,7.60
2023-10-05T00:24:54.461Z,7.60
2023-10-05T00:27:21.578Z,7.60
2023-10-05T00:29:54.932Z,7.50
2023-10-05T00:32:47.907Z,7.60
2023-10-05T00:35:33.437Z,7.60
2023-10-05T00:38:17.592Z,7.60
2023-10-05T00:40:51.926Z,7.50
2023-10-05T00:43:18.702Z,7.40
2023-10-05T00:45:48.678Z,7.40
2023-10-05T00:48:27.562Z,7.30
2023-10-05T00:50:58.786Z,7.30
2023-10-05T00:53:25.621Z,7.40
2023-10-05T00:55:58.959Z,7.30
2023-10-05T00:58:35.890Z,7.30
2023-10-05T01:01:06.935Z,7.30
2023-10-05T01:03:37.050Z,7.20
2023-10-05T01:06:30.815Z,7.20
2023-10-05T01:09:01.544Z,7.30
2023-10-05T01:11:39.211Z,7.20
2023-10-05T01:14:07.798Z,7.30
2023-10-05T01:16:34.601Z,7.20
2023-10-05T01:19:09.546Z,7.20
2023-10-05T01:21:37.553Z,7.20
2023-10-05T01:24:05.479Z,7.20
2023-10-05T01:26:38.278Z,7.30
2023-10-05T01:29:05.629Z,7.30
2023-10-05T01:31:33.979Z,7.20
2023-10-05T01:34:00.947Z,7.10
2023-10-05T01:36:27.644Z,7.10
2023-10-05T01:39:02.808Z,7.20
2023-10-05T01:41:29.621Z,7.20
2023-10-05T01:43:58.904Z,7.20
2023-10-05T01:46:25.690Z,7.20
2023-10-05T01:48:53.475Z,7.10
2023-10-05T01:51:27.793Z,7.10
2023-10-05T01:54:00.480Z,7.00
2023-10-05T01:56:28.466Z,7.00
2023-10-05T01:58:56.255Z,7.00
2023-10-05T02:01:28.212Z,7.10
2023-10-05T02:03:56.321Z,7.00
2023-10-05T02:06:23.096Z,7.00
2023-10-05T02:08:50.814Z,7.00
2023-10-05T02:11:19.099Z,7.00
2023-10-05T02:13:46.600Z,6.90
2023-10-05T02:16:19.529Z,6.90
2023-10-05T02:18:46.382Z,6.80
2023-10-05T02:21:20.465Z,6.70
2023-10-05T02:23:52.273Z,6.70
2023-10-05T02:26:26.922Z,6.70
2023-10-05T02:28:56.292Z,6.70
2023-10-05T02:31:23.518Z,6.70
2023-10-05T02:33:53.311Z,6.70
2023-10-05T02:36:27.808Z,6.60
2023-10-05T02:38:55.364Z,6.50
2023-10-05T02:41:37.524Z,6.50
2023-10-05T02:44:28.188Z,6.50
2023-10-05T02:46:55.197Z,6.50
2023-10-05T02:49:25.362Z,6.50
2023-10-05T02:51:55.816Z,6.50
2023-10-05T02:54:25.976Z,6.50
2023-10-05T02:56:55.588Z,6.50
2023-10-05T02:59:27.700Z,6.50
2023-10-05T03:02:01.978Z,6.50
2023-10-05T03:04:45.961Z,6.40
2023-10-05T03:07:16.299Z,6.40
2023-10-05T03:09:50.346Z,6.40
2023-10-05T03:12:22.198Z,6.40
2023-10-05T03:14:51.706Z,6.30
2023-10-05T03:17:23.174Z,6.40
2023-10-05T03:19:51.989Z,6.40
2023-10-05T03:22:18.950Z,6.50
2023-10-05T03:24:46.071Z,6.50
2023-10-05T03:27:13.353Z,6.50
2023-10-05T03:29:40.207Z,6.50
2023-10-05T03:32:09.705Z,6.50
2023-10-05T03:34:40.673Z,6.50
2023-10-05T03:37:14.756Z,6.60
2023-10-05T03:40:00.574Z,6.60
2023-10-05T03:42:27.756Z,6.60
2023-10-05T03:45:05.698Z,6.60
2023-10-05T03:47:33.025Z,6.60
2023-10-05T03:49:59.745Z,6.60
2023-10-05T03:52:36.022Z,6.60
2023-10-05T03:55:11.688Z,6.60
2023-10-05T03:57:39.572Z,6.60
2023-10-05T04:00:32.720Z,6.60
2023-10-05T04:02:59.653Z,6.60
2023-10-05T04:05:26.534Z,6.60
2023-10-05T04:07:54.184Z,6.60
2023-10-05T04:10:47.547Z,6.60
2023-10-05T04:13:19.063Z,6.60
2023-10-05T04:15:46.662Z,6.50
2023-10-05T04:18:16.604Z,6.50
2023-10-05T04:20:48.368Z,6.50
2023-10-05T04:23:26.660Z,6.60
2023-10-05T04:25:57.504Z,6.50
2023-10-05T04:28:34.157Z,6.50
2023-10-05T04:31:01.306Z,6.60
2023-10-05T04:33:28.696Z,6.60
2023-10-05T04:35:56.000Z,6.60
2023-10-05T04:38:26.239Z,6.60
2023-10-05T04:40:53.680Z,6.60
2023-10-05T04:43:21.384Z,6.60
2023-10-05T04:45:48.655Z,6.50
2023-10-05T04:48:17.167Z,6.50
2023-10-05T04:50:43.983Z,6.50
2023-10-05T04:53:11.145Z,6.60
2023-10-05T04:55:45.986Z,6.60
2023-10-05T04:58:22.061Z,6.60
2023-10-05T05:00:48.873Z,6.60
2023-10-05T05:03:34.014Z,6.50
2023-10-05T05:06:00.870Z,6.50
2023-10-05T05:08:28.033Z,6.50
2023-10-05T05:10:54.774Z,6.50
2023-10-05T05:13:25.196Z,6.50
2023-10-05T05:15:52.172Z,6.40
2023-10-05T05:18:19.245Z,6.60
2023-10-05T05:20:46.920Z,6.60
2023-10-05T05:23:17.993Z,6.60
2023-10-05T05:25:50.027Z,6.70
2023-10-05T05:28:16.903Z,6.60
2023-10-05T05:30:43.785Z,6.70
2023-10-05T05:33:13.712Z,6.70
2023-10-05T05:35:41.599Z,6.80
2023-10-05T05:38:11.956Z,6.80
2023-10-05T05:40:41.554Z,6.80
2023-10-05T05:43:12.736Z,6.80
2023-10-05T05:45:43.940Z,6.80
2023-10-05T05:48:15.298Z,6.80
2023-10-05T05:50:46.630Z,6.80
2023-10-05T05:53:13.392Z,6.80
2023-10-05T05:55:54.123Z,6.80
2023-10-05T05:58:21.247Z,6.80
2023-10-05T06:00:48.176Z,6.70
2023-10-05T06:03:16.135Z,6.80
2023-10-05T06:05:47.810Z,6.70
2023-10-05T06:08:23.107Z,6.70
2023-10-05T06:10:52.571Z,6.80
2023-10-05T06:13:25.331Z,6.80
2023-10-05T06:15:57.707Z,6.90
2023-10-05T06:18:25.459Z,6.90
2023-10-05T06:20:52.257Z,7.00
2023-10-05T06:23:22.359Z,7.00
2023-10-05T06:25:49.537Z,7.00
2023-10-05T06:28:16.477Z,7.10
2023-10-05T06:30:43.926Z,7.10
2023-10-05T06:33:10.761Z,7.20
2023-10-05T06:35:37.577Z,7.40
2023-10-05T06:38:04.616Z,7.30
2023-10-05T06:40:31.439Z,7.30
2023-10-05T06:42:59.243Z,7.30
2023-10-05T06:45:26.145Z,7.30
2023-10-05T06:47:52.980Z,7.30
2023-10-05T06:50:19.844Z,7.30
2023-10-05T06:52:49.649Z,7.30
2023-10-05T06:55:23.136Z,7.40
2023-10-05T06:57:54.940Z,7.50
2023-10-05T07:00:22.550Z,7.50
2023-10-05T07:02:51.258Z,7.60
2023-10-05T07:09:03.344Z,7.70
2023-10-05T07:14:26.782Z,7.70
2023-10-05T07:17:00.360Z,7.80
2023-10-05T07:19:35.329Z,7.90
2023-10-05T07:22:03.691Z,7.90
2023-10-05T07:24:30.450Z,8.00
2023-10-05T07:26:59.798Z,8.00
2023-10-05T07:29:31.463Z,8.10
2023-10-05T07:31:59.049Z,8.10
2023-10-05T07:34:25.925Z,8.20
2023-10-05T07:36:52.687Z,8.20
2023-10-05T07:39:20.100Z,8.30
2023-10-05T07:41:50.027Z,8.30
2023-10-05T07:44:18.520Z,8.50
2023-10-05T07:46:46.132Z,8.50
2023-10-05T07:49:12.997Z,8.60
2023-10-05T07:51:39.899Z,8.70
2023-10-05T07:55:12.737Z,8.70
2023-10-05T08:03:54.781Z,8.90
2023-10-05T08:14:32.828Z,9.30
2023-10-05T08:32:16.096Z,9.90
2023-10-05T08:34:45.774Z,10.00
2023-10-05T08:37:18.865Z,10.10
2023-10-05T08:39:47.309Z,10.20
2023-10-05T08:42:17.505Z,10.30
2023-10-05T08:44:44.785Z,10.40
2023-10-05T08:47:13.471Z,10.50
2023-10-05T08:49:44.764Z,10.70
2023-10-05T08:52:20.478Z,10.70
2023-10-05T08:54:48.631Z,10.80
2023-10-05T08:57:17.924Z,10.90
2023-10-05T08:59:48.182Z,11.10
2023-10-05T09:02:24.491Z,11.20
2023-10-05T09:05:01.167Z,11.30
2023-10-05T09:07:40.298Z,11.40
2023-10-05T09:10:09.932Z,11.60
2023-10-05T09:12:41.370Z,11.80
2023-10-05T09:15:28.577Z,11.90
2023-10-05T09:17:58.663Z,12.00
2023-10-05T09:20:32.349Z,12.00
2023-10-05T09:23:02.004Z,12.10
2023-10-05T09:25:43.519Z,12.20
2023-10-05T09:28:18.606Z,12.40
2023-10-05T09:30:57.633Z,12.40
2023-10-05T09:33:35.312Z,12.50
2023-10-05T09:36:20.478Z,12.60
2023-10-05T09:38:50.907Z,12.60
2023-10-05T09:41:19.602Z,12.70
2023-10-05T09:43:55.557Z,12.80
2023-10-05T09:46:24.177Z,12.90
2023-10-05T09:48:51.510Z,13.10
2023-10-05T09:51:18.592Z,13.20
2023-10-05T09:53:48.701Z,13.30
2023-10-05T09:56:33.006Z,13.50
2023-10-05T09:59:06.546Z,13.70
2023-10-05T10:01:38.266Z,13.80
2023-10-05T10:04:08.833Z,14.00
2023-10-05T10:06:36.752Z,14.10
2023-10-05T10:09:10.666Z,14.20
2023-10-05T10:11:37.947Z,14.40
2023-10-05T10:14:15.199Z,14.50
2023-10-05T10:16:44.341Z,14.70
2023-10-05T10:19:21.035Z,14.80
2023-10-05T10:21:51.421Z,14.90
2023-10-05T10:24:20.212Z,15.00
2023-10-05T10:27:16.679Z,15.10
2023-10-05T10:29:56.861Z,15.10
2023-10-05T10:32:33.194Z,15.40
2023-10-05T10:35:10.627Z,15.60
2023-10-05T10:37:46.437Z,15.80
2023-10-05T10:40:21.825Z,16.00
2023-10-05T10:43:06.121Z,16.10
2023-10-05T10:45:42.714Z,16.40
2023-10-05T10:48:21.814Z,16.50
2023-10-05T10:50:55.426Z,16.30
2023-10-05T10:53:26.902Z,16.20
2023-10-05T10:55:59.562Z,16.10
2023-10-05T10:58:27.610Z,16.00
2023-10-05T11:01:03.930Z,16.00
2023-10-05T11:03:32.119Z,16.00
2023-10-05T11:06:01.764Z,16.00
2023-10-05T11:08:33.034Z,15.90
2023-10-05T11:11:00.758Z,15.90
2023-10-05T11:13:32.662Z,15.90
2023-10-05T11:16:01.169Z,15.80
2023-10-05T11:18:43.593Z,15.80
2023-10-05T11:21:17.199Z,15.70
2023-10-05T11:23:57.283Z,15.70
2023-10-05T11:26:44.506Z,15.70
2023-10-05T11:29:22.163Z,15.70
2023-10-05T11:32:00.716Z,15.70
2023-10-05T11:35:16.743Z,15.60
2023-10-05T11:37:32.280Z,15.70
2023-10-05T11:40:02.426Z,15.70
2023-10-05T11:42:35.762Z,15.80
2023-10-05T11:45:14.017Z,15.70
2023-10-05T11:47:46.988Z,15.50
2023-10-05T11:50:25.329Z,15.60
2023-10-05T11:52:56.491Z,15.70
2023-10-05T11:55:23.285Z,15.80
2023-10-05T11:57:50.173Z,15.70
2023-10-05T12:00:19.721Z,15.70
2023-10-05T12:02:47.382Z,15.70
2023-10-05T12:05:15.448Z,15.80
2023-10-05T12:07:47.098Z,15.90
2023-10-05T12:10:15.217Z,15.90
2023-10-05T12:13:35.857Z,15.90
2023-10-05T12:16:12.512Z,16.00
2023-10-05T12:18:43.177Z,16.00
2023-10-05T12:21:13.489Z,16.00
2023-10-05T12:23:40.277Z,16.10
2023-10-05T12:26:11.453Z,16.20
2023-10-05T12:28:42.311Z,16.10
2023-10-05T12:31:11.346Z,16.10
2023-10-05T12:33:41.355Z,16.20
2023-10-05T12:36:13.361Z,16.20
2023-10-05T12:38:40.656Z,16.30
2023-10-05T12:41:16.463Z,16.30
2023-10-05T12:43:44.036Z,16.40
2023-10-05T12:46:14.366Z,16.30
2023-10-05T12:48:41.756Z,16.30
2023-10-05T12:51:09.459Z,16.30
2023-10-05T12:53:39.912Z,16.30
2023-10-05T12:56:08.335Z,16.40
2023-10-05T12:58:36.211Z,16.40
2023-10-05T13:01:14.498Z,16.30
2023-10-05T13:03:41.818Z,16.30
2023-10-05T13:06:12.033Z,16.30
2023-10-05T13:08:45.126Z,16.30
2023-10-05T13:11:13.053Z,16.30
2023-10-05T13:13:40.317Z,16.30
2023-10-05T13:16:14.764Z,16.30
2023-10-05T13:18:43.751Z,16.30
2023-10-05T13:21:15.316Z,16.30
2023-10-05T13:23:42.390Z,16.30
2023-10-05T13:26:09.681Z,16.20
2023-10-05T13:28:36.833Z,16.20
2023-10-05T13:31:20.349Z,16.20
2023-10-05T13:33:49.305Z,16.20
2023-10-05T13:36:16.209Z,16.20
2023-10-05T13:38:44.572Z,16.20
2023-10-05T13:42:11.099Z,16.10
2023-10-05T13:44:40.633Z,16.20
2023-10-05T13:47:10.811Z,16.20
2023-10-05T13:49:43.097Z,16.20
2023-10-05T13:52:10.695Z,16.10
2023-10-05T13:54:37.626Z,16.10
2023-10-05T13:57:05.089Z,16.10
2023-10-05T13:59:32.328Z,16.20
2023-10-05T14:02:01.813Z,16.10
2023-10-05T14:04:31.378Z,16.10
2023-10-05T14:07:00.248Z,16.10
2023-10-05T14:09:30.046Z,16.10
2023-10-05T14:11:56.996Z,16.10
2023-10-05T14:14:23.809Z,16.00
2023-10-05T14:16:51.957Z,16.00
2023-10-05T14:19:20.153Z,16.10
2023-10-05T14:21:47.833Z,16.00
2023-10-05T14:24:18.480Z,16.00
2023-10-05T14:26:48.989Z,16.00
2023-10-05T14:29:18.330Z,16.00
2023-10-05T14:31:45.818Z,15.90
2023-10-05T14:34:14.713Z,16.00
2023-10-05T14:36:41.689Z,15.90
2023-10-05T14:39:19.505Z,15.90
2023-10-05T14:41:46.352Z,15.90
2023-10-05T14:44:14.920Z,15.90
2023-10-05T14:46:41.884Z,15.80
2023-10-05T14:49:09.431Z,15.80
2023-10-05T14:51:36.439Z,15.90
2023-10-05T14:54:03.224Z,15.90
2023-10-05T14:56:29.938Z,15.80
2023-10-05T14:58:56.632Z,15.90
2023-10-05T15:01:24.111Z,15.80
2023-10-05T15:03:51.066Z,15.80
2023-10-05T15:06:19.814Z,15.80
2023-10-05T15:08:47.041Z,15.80
2023-10-05T15:11:13.856Z,15.80
2023-10-05T15:13:40.715Z,15.80
2023-10-05T15:16:07.568Z,15.80
2023-10-05T15:18:36.253Z,15.80
2023-10-05T15:21:04.039Z,15.80
2023-10-05T15:23:30.820Z,15.80
2023-10-05T15:25:58.330Z,15.80
2023-10-05T15:28:25.600Z,15.80
2023-10-05T15:30:53.264Z,15.80
2023-10-05T15:33:20.096Z,15.80
2023-10-05T15:35:46.796Z,15.70
2023-10-05T15:38:13.484Z,15.70
2023-10-05T15:40:40.296Z,15.70
2023-10-05T15:43:07.116Z,15.70
2023-10-05T15:45:36.150Z,15.70
2023-10-05T15:48:10.828Z,15.60
2023-10-05T15:50:41.389Z,15.60
2023-10-05T15:53:08.730Z,15.60
2023-10-05T15:55:36.548Z,15.60
2023-10-05T15:58:16.568Z,15.60
2023-10-05T16:00:43.368Z,15.60
2023-10-05T16:03:12.322Z,15.60
2023-10-05T16:05:41.098Z,15.50
2023-10-05T16:08:08.880Z,15.50
2023-10-05T16:10:40.965Z,15.50
2023-10-05T16:13:10.904Z,15.40
2023-10-05T16:15:40.004Z,15.40
2023-10-05T16:18:09.222Z,15.30
2023-10-05T16:20:41.809Z,15.30
2023-10-05T16:23:11.931Z,15.30
2023-10-05T16:25:40.576Z,15.20
2023-10-05T16:28:09.623Z,15.20
2023-10-05T16:30:37.397Z,15.20
2023-10-05T16:33:06.935Z,15.10
2023-10-05T16:35:41.264Z,15.00
2023-10-05T16:38:09.625Z,15.00
2023-10-05T16:40:36.492Z,15.00
2023-10-05T16:43:03.650Z,15.00
2023-10-05T16:45:30.584Z,15.00
2023-10-05T16:47:57.355Z,15.00
2023-10-05T16:50:25.965Z,14.90
2023-10-05T16:52:53.346Z,15.00
2023-10-05T16:55:22.853Z,14.90
2023-10-05T16:57:51.846Z,14.90
2023-10-05T17:00:27.589Z,14.90
2023-10-05T17:02:55.982Z,14.90
2023-10-05T17:05:31.550Z,14.90
2023-10-05T17:08:01.857Z,14.80
2023-10-05T17:10:28.898Z,14.80
2023-10-05T17:12:56.073Z,14.70
2023-10-05T17:15:24.638Z,14.70
2023-10-05T17:17:52.044Z,14.70
2023-10-05T17:20:19.221Z,14.70
2023-10-05T17:22:46.135Z,14.60
2023-10-05T17:25:13.016Z,14.50
2023-10-05T17:27:39.787Z,14.50
2023-10-05T17:30:10.708Z,14.40
2023-10-05T17:32:44.893Z,14.30
2023-10-05T17:35:24.122Z,14.20
2023-10-05T17:37:53.924Z,14.20
2023-10-05T17:40:22.439Z,14.20
2023-10-05T17:42:50.339Z,14.10
2023-10-05T17:45:19.177Z,14.10
2023-10-05T17:47:47.089Z,14.00
2023-10-05T17:50:16.970Z,13.90
2023-10-05T17:52:47.543Z,13.80
2023-10-05T17:55:18.368Z,13.70
2023-10-05T17:57:48.137Z,13.60
2023-10-05T18:00:18.559Z,13.60
2023-10-05T18:03:20.971Z,13.50
2023-10-05T18:05:53.040Z,13.50
2023-10-05T18:08:29.910Z,13.40
2023-10-05T18:10:56.662Z,13.30
2023-10-05T18:13:23.477Z,13.20
2023-10-05T18:15:54.851Z,13.20
2023-10-05T18:18:22.203Z,13.10
2023-10-05T18:20:49.105Z,13.10
2023-10-05T18:23:15.892Z,12.90
2023-10-05T18:25:42.654Z,12.90
2023-10-05T18:28:10.842Z,12.80
2023-10-05T18:30:38.742Z,12.80
2023-10-05T18:33:08.535Z,12.80
2023-10-05T18:35:38.697Z,12.90
2023-10-05T18:38:06.632Z,12.80
2023-10-05T18:40:37.379Z,12.80
2023-10-05T18:43:07.541Z,12.80
2023-10-05T18:45:40.308Z,12.70
2023-10-05T18:48:07.405Z,12.60
2023-10-05T18:50:36.813Z,12.50
2023-10-05T18:53:05.440Z,12.50
2023-10-05T18:55:32.625Z,12.40
2023-10-05T18:58:02.704Z,12.30
2023-10-05T19:00:29.380Z,12.30
2023-10-05T19:02:58.301Z,12.40
2023-10-05T19:05:25.204Z,12.40
2023-10-05T19:07:51.968Z,12.40
2023-10-05T19:10:19.526Z,12.30
2023-10-05T19:12:46.515Z,12.20
2023-10-05T19:15:14.935Z,12.20
2023-10-05T19:17:42.166Z,12.10
2023-10-05T19:20:10.251Z,12.10
2023-10-05T19:22:37.123Z,12.10
2023-10-05T19:25:04.531Z,12.00
2023-10-05T19:27:34.004Z,12.00
2023-10-05T19:30:01.653Z,11.90
2023-10-05T19:32:28.498Z,11.80
2023-10-05T19:35:16.969Z,11.80
2023-10-05T19:37:43.848Z,11.70
2023-10-05T19:40:11.155Z,11.70
2023-10-05T19:42:40.503Z,11.60
2023-10-05T19:45:08.600Z,11.60
2023-10-05T19:47:35.617Z,11.50
2023-10-05T19:50:02.577Z,11.50
2023-10-05T19:52:29.399Z,11.50
2023-10-05T19:54:58.411Z,11.50
2023-10-05T19:57:26.037Z,11.40
2023-10-05T19:59:53.792Z,11.40
2023-10-05T20:02:20.585Z,11.30
2023-10-05T20:04:48.590Z,11.20
2023-10-05T20:07:16.559Z,11.20
2023-10-05T20:09:45.255Z,11.20
2023-10-05T20:12:12.638Z,11.10
2023-10-05T20:14:39.578Z,11.10
2023-10-05T20:17:06.949Z,11.10
2023-10-05T20:19:34.627Z,11.00
2023-10-05T20:22:01.695Z,10.90
2023-10-05T20:24:28.829Z,10.90
2023-10-05T20:26:55.519Z,10.90
2023-10-05T20:29:22.662Z,10.80
2023-10-05T20:31:49.400Z,10.70
2023-10-05T20:34:23.000Z,10.70
2023-10-05T20:36:53.882Z,10.60
2023-10-05T20:39:22.566Z,10.60
2023-10-05T20:41:49.463Z,10.60
2023-10-05T20:44:16.160Z,10.60
2023-10-05T20:46:42.945Z,10.40
2023-10-05T20:49:10.888Z,10.40
2023-10-05T20:51:37.629Z,10.30
2023-10-05T20:54:04.582Z,10.30
2023-10-05T20:56:32.300Z,10.30
2023-10-05T20:58:59.236Z,10.20
2023-10-05T21:01:26.035Z,10.20
2023-10-05T21:03:52.800Z,10.10
2023-10-05T21:06:19.516Z,10.20
2023-10-05T21:08:48.270Z,10.10
2023-10-05T21:11:20.320Z,10.10
2023-10-05T21:13:51.884Z,10.10
2023-10-05T21:16:18.868Z,10.10
2023-10-05T21:18:45.980Z,10.10
2023-10-05T21:21:13.347Z,10.00
2023-10-05T21:23:40.560Z,9.90
2023-10-05T21:26:07.810Z,9.90
2023-10-05T21:28:36.377Z,9.80
2023-10-05T21:31:06.281Z,9.80
2023-10-05T21:33:33.262Z,9.80
2023-10-05T21:36:00.049Z,9.90
2023-10-05T21:38:26.871Z,9.90
2023-10-05T21:40:53.644Z,9.90
2023-10-05T21:43:20.302Z,9.90
2023-10-05T21:45:47.018Z,9.90
2023-10-05T21:48:13.736Z,9.90
2023-10-05T21:50:40.498Z,9.80
2023-10-05T21:53:07.298Z,9.70
2023-10-05T21:55:34.732Z,9.60
2023-10-05T21:58:01.650Z,9.60
2023-10-05T22:00:40.667Z,9.60
2023-10-05T22:03:08.593Z,9.60
2023-10-05T22:05:37.691Z,9.50
2023-10-05T22:08:08.507Z,9.40
2023-10-05T22:10:39.663Z,9.40
2023-10-05T22:13:10.620Z,9.40
2023-10-05T22:15:40.031Z,9.40
2023-10-05T22:18:07.494Z,9.40
2023-10-05T22:20:34.912Z,9.30
2023-10-05T22:23:05.468Z,9.40
2023-10-05T22:25:37.669Z,9.30
2023-10-05T22:28:05.891Z,9.30
2023-10-05T22:30:33.684Z,9.10
2023-10-05T22:33:00.825Z,9.10
2023-10-05T22:35:28.114Z,9.10
2023-10-05T22:37:54.932Z,9.00
2023-10-05T22:40:22.067Z,9.00
2023-10-05T22:42:48.947Z,8.90
2023-10-05T22:45:15.728Z,8.90
2023-10-05T22:47:42.631Z,8.80
2023-10-05T22:50:09.792Z,8.80
2023-10-05T22:52:37.202Z,8.70
2023-10-05T22:55:04.626Z,8.70
2023-10-05T22:57:31.485Z,8.70
2023-10-05T22:59:58.424Z,8.70
2023-10-05T23:02:25.215Z,8.60
2023-10-05T23:04:52.108Z,8.50
2023-10-05T23:07:18.924Z,8.60
2023-10-05T23:09:47.345Z,8.40
2023-10-05T23:12:14.868Z,8.40
2023-10-05T23:14:49.491Z,8.40
2023-10-05T23:17:17.326Z,8.40
2023-10-05T23:19:44.632Z,8.30
2023-10-05T23:22:12.329Z,8.30
2023-10-05T23:24:39.332Z,8.30
2023-10-05T23:27:06.467Z,8.30
2023-10-05T23:29:36.457Z,8.10
2023-10-05T23:32:03.476Z,8.10
2023-10-05T23:34:36.380Z,8.00
2023-10-05T23:37:05.602Z,8.00
2023-10-05T23:39:32.806Z,8.00
2023-10-05T23:42:11.720Z,7.90
2023-10-05T23:44:40.031Z,7.90
2023-10-05T23:47:22.802Z,7.90
2023-10-05T23:49:52.134Z,7.80
2023-10-05T23:52:19.487Z,7.80
2023-10-05T23:54:46.281Z,7.80
2023-10-05T23:57:18.841Z,7.80
2023-10-05T23:59:47.284Z,7.70
